createdAt,value
2018-10-07T00:02:05.854Z,13.80
2018-10-07T00:05:12.836Z,13.80
2018-10-07T00:08:19.934Z,13.80
2018-10-07T00:11:27.020Z,13.80
2018-10-07T00:14:33.994Z,13.70
2018-10-07T00:17:41.104Z,13.70
2018-10-07T00:20:47.341Z,13.70
2018-10-07T00:23:54.595Z,13.70
2018-10-07T00:27:01.612Z,13.70
2018-10-07T00:30:08.769Z,13.80
2018-10-07T00:33:16.784Z,13.80
2018-10-07T00:36:24.257Z,13.80
2018-10-07T00:39:31.963Z,13.80
2018-10-07T00:42:39.173Z,13.80
2018-10-07T00:45:46.028Z,13.80
2018-10-07T00:48:53.292Z,13.70
2018-10-07T00:52:00.464Z,13.70
2018-10-07T00:55:07.666Z,13.70
2018-10-07T00:58:14.965Z,13.70
2018-10-07T01:01:22.157Z,13.70
2018-10-07T01:04:29.303Z,13.70
2018-10-07T01:07:36.562Z,13.60
2018-10-07T01:10:44.586Z,13.60
2018-10-07T01:13:51.569Z,13.60
2018-10-07T01:16:58.743Z,13.60
2018-10-07T01:20:05.923Z,13.50
2018-10-07T01:23:13.106Z,13.50
2018-10-07T01:26:20.348Z,13.50
2018-10-07T01:29:26.615Z,13.40
2018-10-07T01:32:33.678Z,13.40
2018-10-07T01:35:40.782Z,13.40
2018-10-07T01:38:47.816Z,13.40
2018-10-07T01:41:54.894Z,13.40
2018-10-07T01:45:02.118Z,13.40
2018-10-07T01:48:09.462Z,13.40
2018-10-07T01:51:16.651Z,13.40
2018-10-07T01:54:23.038Z,13.30
2018-10-07T01:57:29.578Z,13.40
2018-10-07T02:00:36.676Z,13.50
2018-10-07T02:03:43.560Z,13.50
2018-10-07T02:06:50.651Z,13.50
2018-10-07T02:09:57.792Z,13.50
2018-10-07T02:13:05.348Z,13.70
2018-10-07T02:16:12.785Z,13.70
2018-10-07T02:19:20.063Z,13.60
2018-10-07T02:22:27.259Z,13.60
2018-10-07T02:25:34.461Z,13.40
2018-10-07T02:28:41.691Z,13.40
2018-10-07T02:31:48.808Z,13.30
2018-10-07T02:34:56.007Z,13.30
2018-10-07T02:38:03.145Z,13.30
2018-10-07T02:41:10.111Z,13.20
2018-10-07T02:44:16.354Z,13.20
2018-10-07T02:47:23.540Z,13.20
2018-10-07T02:50:37.764Z,13.20
2018-10-07T02:53:44.018Z,13.20
2018-10-07T02:56:51.192Z,13.20
2018-10-07T02:59:58.434Z,13.10
2018-10-07T03:03:07.917Z,13.10
2018-10-07T03:06:15.107Z,13.10
2018-10-07T03:09:22.706Z,13.10
2018-10-07T03:12:29.692Z,13.20
2018-10-07T03:15:35.970Z,13.20
2018-10-07T03:18:42.243Z,13.20
2018-10-07T03:21:49.433Z,13.20
2018-10-07T03:24:56.725Z,13.30
2018-10-07T03:28:03.781Z,13.30
2018-10-07T03:31:10.847Z,13.30
2018-10-07T03:34:17.940Z,13.20
2018-10-07T03:37:25.188Z,13.10
2018-10-07T03:40:32.493Z,13.10
2018-10-07T03:43:38.847Z,13.10
2018-10-07T03:46:46.108Z,13.10
2018-10-07T03:49:53.113Z,13.10
2018-10-07T03:52:59.986Z,13.10
2018-10-07T03:56:06.971Z,13.00
2018-10-07T03:59:14.172Z,13.00
2018-10-07T04:02:21.248Z,12.90
2018-10-07T04:05:28.319Z,12.80
2018-10-07T04:08:35.518Z,12.70
2018-10-07T04:11:42.428Z,12.60
2018-10-07T04:14:49.309Z,12.60
2018-10-07T04:17:56.317Z,12.70
2018-10-07T04:21:03.444Z,12.70
2018-10-07T04:24:12.957Z,12.70
2018-10-07T04:27:20.208Z,12.70
2018-10-07T04:30:27.472Z,12.80
2018-10-07T04:33:33.829Z,12.80
2018-10-07T04:36:40.931Z,12.70
2018-10-07T04:39:48.235Z,12.70
2018-10-07T04:42:55.396Z,12.70
2018-10-07T04:46:02.433Z,12.60
2018-10-07T04:49:10.191Z,12.50
2018-10-07T04:52:17.271Z,12.50
2018-10-07T04:55:24.686Z,12.50
2018-10-07T04:58:31.768Z,12.40
2018-10-07T05:01:39.106Z,12.30
2018-10-07T05:04:46.084Z,12.30
2018-10-07T05:07:53.481Z,12.30
2018-10-07T05:11:04.781Z,12.20
2018-10-07T05:14:12.660Z,12.10
2018-10-07T05:17:18.899Z,12.00
2018-10-07T05:20:26.126Z,11.90
2018-10-07T05:23:32.571Z,11.80
2018-10-07T05:26:39.003Z,11.70
2018-10-07T05:29:45.215Z,11.60
2018-10-07T05:32:52.358Z,11.60
2018-10-07T05:35:59.774Z,11.70
2018-10-07T05:39:07.073Z,11.70
2018-10-07T05:42:18.606Z,11.60
2018-10-07T05:45:28.261Z,11.50
2018-10-07T05:48:35.049Z,11.50
2018-10-07T05:51:43.326Z,11.50
2018-10-07T05:54:50.558Z,11.50
2018-10-07T05:57:57.612Z,11.50
2018-10-07T06:01:03.929Z,11.50
2018-10-07T06:04:18.247Z,11.60
2018-10-07T06:07:26.278Z,11.60
2018-10-07T06:10:34.840Z,11.80
2018-10-07T06:13:41.871Z,11.90
2018-10-07T06:16:49.192Z,11.90
2018-10-07T06:19:55.431Z,12.00
2018-10-07T06:23:03.537Z,12.10
2018-10-07T06:26:10.640Z,12.20
2018-10-07T06:29:18.034Z,12.30
2018-10-07T06:32:25.356Z,12.40
2018-10-07T06:35:33.552Z,12.60
2018-10-07T06:38:42.709Z,12.70
2018-10-07T06:41:49.938Z,12.80
2018-10-07T06:44:57.365Z,12.90
2018-10-07T06:48:04.391Z,13.00
2018-10-07T06:51:11.336Z,13.20
2018-10-07T06:54:19.455Z,13.30
2018-10-07T06:57:26.487Z,13.50
2018-10-07T07:00:33.540Z,13.60
2018-10-07T07:03:40.715Z,13.70
2018-10-07T07:06:47.770Z,13.80
2018-10-07T07:09:54.295Z,13.90
2018-10-07T07:13:01.657Z,14.10
2018-10-07T07:16:09.014Z,14.10
2018-10-07T07:19:21.258Z,14.20
2018-10-07T07:22:28.612Z,14.40
2018-10-07T07:25:35.951Z,14.50
2018-10-07T07:28:42.753Z,14.70
2018-10-07T07:31:51.176Z,14.80
2018-10-07T07:34:58.567Z,15.00
2018-10-07T07:38:05.816Z,15.10
2018-10-07T07:41:12.861Z,15.40
2018-10-07T07:44:19.082Z,15.50
2018-10-07T07:47:28.453Z,15.70
2018-10-07T07:50:34.874Z,15.70
2018-10-07T07:53:41.265Z,15.80
2018-10-07T07:56:47.494Z,16.00
2018-10-07T07:59:54.892Z,16.10
2018-10-07T08:03:02.079Z,16.40
2018-10-07T08:06:08.369Z,16.60
2018-10-07T08:09:16.676Z,16.80
2018-10-07T08:12:23.584Z,16.80
2018-10-07T08:15:30.780Z,17.00
2018-10-07T08:18:37.813Z,17.20
2018-10-07T08:21:44.837Z,17.20
2018-10-07T08:24:56.765Z,17.30
2018-10-07T08:28:08.252Z,17.50
2018-10-07T08:31:18.567Z,17.50
2018-10-07T08:34:29.637Z,17.40
2018-10-07T08:37:40.535Z,17.40
2018-10-07T08:40:52.104Z,17.50
2018-10-07T08:44:05.411Z,17.60
2018-10-07T08:47:16.815Z,17.70
2018-10-07T08:50:27.577Z,17.80
2018-10-07T08:53:35.249Z,17.70
2018-10-07T08:56:43.215Z,17.70
2018-10-07T08:59:50.939Z,17.90
2018-10-07T09:02:57.992Z,18.70
2018-10-07T09:06:10.313Z,19.10
2018-10-07T09:09:19.344Z,19.40
2018-10-07T09:12:27.538Z,19.50
2018-10-07T09:15:35.301Z,19.80
2018-10-07T09:18:42.558Z,20.30
2018-10-07T09:21:50.944Z,19.80
2018-10-07T09:25:04.017Z,19.80
2018-10-07T09:28:16.307Z,19.10
2018-10-07T09:31:28.280Z,18.70
2018-10-07T09:34:34.356Z,18.70
2018-10-07T09:37:41.374Z,18.30
2018-10-07T09:40:48.315Z,18.20
2018-10-07T09:43:55.480Z,18.10
2018-10-07T09:47:02.663Z,17.90
2018-10-07T09:50:09.942Z,18.00
2018-10-07T09:53:17.091Z,18.00
2018-10-07T09:56:25.142Z,18.10
2018-10-07T09:59:32.078Z,18.10
2018-10-07T10:02:39.461Z,18.30
2018-10-07T10:05:45.878Z,18.30
2018-10-07T10:08:52.320Z,18.20
2018-10-07T10:11:59.535Z,18.20
2018-10-07T10:15:06.832Z,18.40
2018-10-07T10:18:16.080Z,18.30
2018-10-07T10:21:58.796Z,18.30
2018-10-07T10:25:18.786Z,18.50
2018-10-07T10:28:48.498Z,18.60
2018-10-07T10:33:08.836Z,18.70
2018-10-07T10:36:40.200Z,18.70
2018-10-07T10:40:24.155Z,18.40
2018-10-07T10:43:35.712Z,18.60
2018-10-07T10:46:54.048Z,18.80
2018-10-07T10:50:13.516Z,18.80
2018-10-07T10:53:42.273Z,18.90
2018-10-07T10:57:02.312Z,19.00
2018-10-07T11:00:46.668Z,19.00
2018-10-07T11:04:20.012Z,19.00
2018-10-07T11:07:43.520Z,19.00
2018-10-07T11:11:12.736Z,19.20
2018-10-07T11:14:28.300Z,19.10
2018-10-07T11:17:41.420Z,19.00
2018-10-07T11:21:02.534Z,19.10
2018-10-07T11:24:15.778Z,19.30
2018-10-07T11:27:31.491Z,19.20
2018-10-07T11:30:48.967Z,19.20
2018-10-07T11:34:32.375Z,19.30
2018-10-07T11:37:48.663Z,19.50
2018-10-07T11:41:33.510Z,19.50
2018-10-07T11:44:48.836Z,19.30
2018-10-07T11:48:07.479Z,19.40
2018-10-07T11:51:23.811Z,19.30
2018-10-07T11:54:33.194Z,19.50
2018-10-07T11:57:40.732Z,19.60
2018-10-07T12:00:47.798Z,19.70
2018-10-07T12:03:54.955Z,19.50
2018-10-07T12:07:02.268Z,19.60
2018-10-07T12:10:09.743Z,19.50
2018-10-07T12:13:16.752Z,19.60
2018-10-07T12:16:23.983Z,19.60
2018-10-07T12:19:31.201Z,19.60
2018-10-07T12:22:37.673Z,19.70
2018-10-07T12:25:44.994Z,19.90
2018-10-07T12:28:52.121Z,19.80
2018-10-07T12:32:09.677Z,19.60
2018-10-07T12:35:20.997Z,19.90
2018-10-07T12:38:32.107Z,19.90
2018-10-07T12:41:43.180Z,19.80
2018-10-07T12:44:54.508Z,19.50
2018-10-07T12:48:06.703Z,19.80
2018-10-07T12:51:17.693Z,20.10
2018-10-07T12:54:28.763Z,20.10
2018-10-07T12:57:42.043Z,20.20
2018-10-07T13:00:52.236Z,19.90
2018-10-07T13:04:03.140Z,19.70
2018-10-07T13:07:13.702Z,19.80
2018-10-07T13:10:22.311Z,20.00
2018-10-07T13:13:29.619Z,20.10
2018-10-07T13:16:36.614Z,19.90
2018-10-07T13:19:43.549Z,19.90
2018-10-07T13:22:49.890Z,19.80
2018-10-07T13:25:56.228Z,19.70
2018-10-07T13:29:03.435Z,19.80
2018-10-07T13:32:10.718Z,19.90
2018-10-07T13:35:18.037Z,20.10
2018-10-07T13:38:25.326Z,20.10
2018-10-07T13:41:31.857Z,20.20
2018-10-07T13:44:38.075Z,20.10
2018-10-07T13:47:44.289Z,20.10
2018-10-07T13:50:51.554Z,20.10
2018-10-07T13:53:58.741Z,19.90
2018-10-07T13:57:05.804Z,20.00
2018-10-07T14:00:12.891Z,20.00
2018-10-07T14:03:19.041Z,20.00
2018-10-07T14:06:26.074Z,20.00
2018-10-07T14:09:32.116Z,20.10
2018-10-07T14:12:39.177Z,20.10
2018-10-07T14:15:46.473Z,20.10
2018-10-07T14:18:53.636Z,20.10
2018-10-07T14:22:00.672Z,20.00
2018-10-07T14:25:08.985Z,19.80
2018-10-07T14:28:16.668Z,19.90
2018-10-07T14:31:24.108Z,20.00
2018-10-07T14:34:33.240Z,20.00
2018-10-07T14:37:43.432Z,20.00
2018-10-07T14:40:50.415Z,20.00
2018-10-07T14:43:56.702Z,20.00
2018-10-07T14:47:04.340Z,19.90
2018-10-07T14:50:11.362Z,20.00
2018-10-07T14:53:17.635Z,20.00
2018-10-07T14:56:24.136Z,19.90
2018-10-07T14:59:30.657Z,19.90
2018-10-07T15:02:37.598Z,19.80
2018-10-07T15:05:43.693Z,19.80
2018-10-07T15:08:51.731Z,19.80
2018-10-07T15:12:00.528Z,19.70
2018-10-07T15:15:09.410Z,19.60
2018-10-07T15:18:15.769Z,19.50
2018-10-07T15:21:23.459Z,19.40
2018-10-07T15:24:29.642Z,19.40
2018-10-07T15:27:36.662Z,19.50
2018-10-07T15:30:47.503Z,19.40
2018-10-07T15:33:56.164Z,19.30
2018-10-07T15:37:04.125Z,19.30
2018-10-07T15:40:11.166Z,19.30
2018-10-07T15:43:19.133Z,19.10
2018-10-07T15:46:31.109Z,19.10
2018-10-07T15:49:37.340Z,19.00
2018-10-07T15:52:44.597Z,18.90
2018-10-07T15:55:51.068Z,18.90
2018-10-07T15:58:57.425Z,18.80
2018-10-07T16:02:04.788Z,18.70
2018-10-07T16:05:11.856Z,18.70
2018-10-07T16:08:19.110Z,18.70
2018-10-07T16:11:25.428Z,18.60
2018-10-07T16:14:32.567Z,18.50
2018-10-07T16:17:39.773Z,18.40
2018-10-07T16:20:46.788Z,18.40
2018-10-07T16:23:53.958Z,18.30
2018-10-07T16:27:01.392Z,18.20
2018-10-07T16:30:08.503Z,18.20
2018-10-07T16:33:15.644Z,18.00
2018-10-07T16:36:22.882Z,18.00
2018-10-07T16:39:29.967Z,17.90
2018-10-07T16:42:37.308Z,17.80
2018-10-07T16:45:43.633Z,17.70
2018-10-07T16:48:50.048Z,17.60
2018-10-07T16:51:57.120Z,17.40
2018-10-07T16:55:04.257Z,17.40
2018-10-07T16:58:11.463Z,17.20
2018-10-07T17:01:17.851Z,17.00
2018-10-07T17:04:27.222Z,17.10
2018-10-07T17:07:34.288Z,17.10
2018-10-07T17:10:42.294Z,16.90
2018-10-07T17:13:54.876Z,16.70
2018-10-07T17:17:03.749Z,16.60
2018-10-07T17:20:10.572Z,16.60
2018-10-07T17:23:17.550Z,16.50
2018-10-07T17:26:24.612Z,16.50
2018-10-07T17:29:31.867Z,16.50
2018-10-07T17:32:39.146Z,16.50
2018-10-07T17:35:46.228Z,16.30
2018-10-07T17:38:54.305Z,16.20
2018-10-07T17:42:02.451Z,16.20
2018-10-07T17:45:09.452Z,16.20
2018-10-07T17:48:16.522Z,16.20
2018-10-07T17:51:23.008Z,16.10
2018-10-07T17:54:30.044Z,16.10
2018-10-07T17:57:37.098Z,16.00
2018-10-07T18:00:44.264Z,16.00
2018-10-07T18:03:51.516Z,15.90
2018-10-07T18:06:59.584Z,15.80
2018-10-07T18:10:06.566Z,15.80
2018-10-07T18:13:13.794Z,15.70
2018-10-07T18:16:20.908Z,15.60
2018-10-07T18:19:28.165Z,15.60
2018-10-07T18:22:35.469Z,15.50
2018-10-07T18:25:43.261Z,15.40
2018-10-07T18:28:51.218Z,15.40
2018-10-07T18:31:59.414Z,15.30
2018-10-07T18:35:06.684Z,15.30
2018-10-07T18:38:13.806Z,15.30
2018-10-07T18:41:20.050Z,15.20
2018-10-07T18:44:27.219Z,15.20
2018-10-07T18:47:36.629Z,15.10
2018-10-07T18:50:44.608Z,15.10
2018-10-07T18:53:52.557Z,15.00
2018-10-07T18:57:00.962Z,14.90
2018-10-07T19:00:09.608Z,14.90
2018-10-07T19:03:18.472Z,14.80
2018-10-07T19:06:26.107Z,14.90
2018-10-07T19:09:34.170Z,14.80
2018-10-07T19:12:40.376Z,14.70
2018-10-07T19:15:47.590Z,14.70
2018-10-07T19:18:54.944Z,14.70
2018-10-07T19:22:04.085Z,14.60
2018-10-07T19:25:13.241Z,14.70
2018-10-07T19:28:21.110Z,14.60
2018-10-07T19:31:28.141Z,14.60
2018-10-07T19:34:35.317Z,14.50
2018-10-07T19:37:42.494Z,14.50
2018-10-07T19:40:49.852Z,14.50
2018-10-07T19:43:56.070Z,14.50
2018-10-07T19:47:03.216Z,14.50
2018-10-07T19:50:10.587Z,14.40
2018-10-07T19:53:16.847Z,14.40
2018-10-07T19:56:25.208Z,14.30
2018-10-07T19:59:32.154Z,14.30
2018-10-07T20:02:39.243Z,14.30
2018-10-07T20:05:46.726Z,14.30
2018-10-07T20:08:53.914Z,14.20
2018-10-07T20:12:01.002Z,14.20
2018-10-07T20:15:07.614Z,14.20
2018-10-07T20:18:14.832Z,14.10
2018-10-07T20:21:22.778Z,14.00
2018-10-07T20:24:29.979Z,13.90
2018-10-07T20:27:45.132Z,13.80
2018-10-07T20:30:53.514Z,13.80
2018-10-07T20:34:01.804Z,13.70
2018-10-07T20:37:08.900Z,13.70
2018-10-07T20:40:16.077Z,13.60
2018-10-07T20:43:23.333Z,13.50
2018-10-07T20:46:35.213Z,13.40
2018-10-07T20:49:49.572Z,13.40
2018-10-07T20:53:02.733Z,13.40
2018-10-07T20:56:17.436Z,13.30
2018-10-07T20:59:31.516Z,13.20
2018-10-07T21:02:46.480Z,13.20
2018-10-07T21:06:02.862Z,13.20
2018-10-07T21:09:19.082Z,13.10
2018-10-07T21:12:32.423Z,13.10
2018-10-07T21:15:47.127Z,13.00
2018-10-07T21:18:59.955Z,13.00
2018-10-07T21:22:12.423Z,13.00
2018-10-07T21:25:24.123Z,12.90
2018-10-07T21:28:35.169Z,12.90
2018-10-07T21:31:48.053Z,12.80
2018-10-07T21:35:03.574Z,12.80
2018-10-07T21:38:15.085Z,12.80
2018-10-07T21:41:29.008Z,12.70
2018-10-07T21:44:43.638Z,12.60
2018-10-07T21:47:57.755Z,12.50
2018-10-07T21:51:06.169Z,12.50
2018-10-07T21:54:13.365Z,12.50
2018-10-07T21:57:20.385Z,12.40
2018-10-07T22:00:29.693Z,12.40
2018-10-07T22:03:37.488Z,12.30
2018-10-07T22:06:44.506Z,12.30
2018-10-07T22:09:51.658Z,12.30
2018-10-07T22:12:58.720Z,12.20
2018-10-07T22:16:13.920Z,12.20
2018-10-07T22:19:20.067Z,12.10
2018-10-07T22:22:27.127Z,12.10
2018-10-07T22:25:33.661Z,12.00
2018-10-07T22:28:46.012Z,12.00
2018-10-07T22:31:58.600Z,12.00
2018-10-07T22:35:10.272Z,12.00
2018-10-07T22:38:22.163Z,11.90
2018-10-07T22:41:33.448Z,11.90
2018-10-07T22:44:45.656Z,11.90
2018-10-07T22:47:56.537Z,11.80
2018-10-07T22:51:07.714Z,11.90
2018-10-07T22:54:18.907Z,11.90
2018-10-07T22:57:30.112Z,11.80
2018-10-07T23:00:41.029Z,11.80
2018-10-07T23:03:52.262Z,11.80
2018-10-07T23:07:01.405Z,11.80
2018-10-07T23:10:13.389Z,11.70
2018-10-07T23:13:24.331Z,11.70
2018-10-07T23:16:33.653Z,11.70
2018-10-07T23:19:42.584Z,11.70
2018-10-07T23:22:54.474Z,11.60
2018-10-07T23:26:06.807Z,11.60
2018-10-07T23:29:17.222Z,11.60
2018-10-07T23:32:29.816Z,11.50
2018-10-07T23:35:40.482Z,11.50
2018-10-07T23:38:51.760Z,11.40
2018-10-07T23:42:02.323Z,11.40
2018-10-07T23:45:11.585Z,11.40
2018-10-07T23:48:18.823Z,11.40
2018-10-07T23:51:25.890Z,11.30
2018-10-07T23:54:33.073Z,11.30
2018-10-07T23:57:40.367Z,11.30
